Time;durP1;ratioP1;P1;durP2;ratioP2;P2;SDS_P1;SDS_P2;PMS_P1;PMS_P2;Temp;Humidity;BMP_temperature;BMP_pressure;BME280_temperature;BME280_humidity;BME280_pressure;Samples;Min_cycle;Max_cycle;Signal;HPM_P1;HPM_P2
2021/03/10 03:57:27;;;;;;;102.80;45.63;;;;;;;-4.97;64.04;100620.71;124915;1112;23014;-53
2021/03/10 03:59:58;;;;;;;112.67;43.03;;;;;;;-4.99;63.97;100624.95;124895;1111;25785;-55
2021/03/10 04:02:27;;;;;;;93.82;41.25;;;;;;;-5.02;63.95;100622.94;124911;1110;23077;-56
2021/03/10 04:04:57;;;;;;;99.83;41.33;;;;;;;-5.03;64.30;100615.94;124959;1112;23096;-52
2021/03/10 04:07:26;;;;;;;95.30;41.47;;;;;;;-5.03;64.05;100619.42;125206;1112;23033;-53
2021/03/10 04:09:56;;;;;;;97.85;40.40;;;;;;;-5.03;64.19;100621.38;125015;1110;23122;-54
2021/03/10 04:12:26;;;;;;;106.37;43.13;;;;;;;-5.05;64.27;100626.41;124931;1112;23089;-52
2021/03/10 04:14:55;;;;;;;107.70;40.73;;;;;;;-5.07;63.91;100628.70;124976;1111;23136;-54
2021/03/10 04:17:26;;;;;;;95.67;40.07;;;;;;;-5.10;63.87;100627.49;124939;1110;26412;-52
2021/03/10 04:19:55;;;;;;;98.07;42.80;;;;;;;-5.12;64.42;100627.08;125039;1112;25953;-55
2021/03/10 04:22:24;;;;;;;96.50;40.93;;;;;;;-5.13;64.23;100625.48;124916;1112;23096;-52
2021/03/10 04:24:52;;;;;;;107.67;43.50;;;;;;;-5.14;64.20;100629.38;125099;1112;23037;-55
2021/03/10 04:27:21;;;;;;;106.90;42.40;;;;;;;-5.16;64.27;100626.23;124968;1112;23032;-52
2021/03/10 04:29:51;;;;;;;105.80;43.63;;;;;;;-5.17;64.09;100630.09;125000;1110;23357;-55
2021/03/10 04:32:20;;;;;;;99.97;42.03;;;;;;;-5.19;64.21;100626.95;124998;1110;23238;-52
2021/03/10 04:34:50;;;;;;;98.83;42.73;;;;;;;-5.19;64.61;100628.88;124954;1112;23027;-52
2021/03/10 04:37:19;;;;;;;94.85;41.33;;;;;;;-5.23;63.86;100633.47;124974;1112;23122;-52
2021/03/10 04:39:49;;;;;;;102.67;42.30;;;;;;;-5.31;64.37;100639.95;125091;1110;24679;-52
2021/03/10 04:42:18;;;;;;;104.50;42.70;;;;;;;-5.39;64.40;100638.26;125050;1112;24482;-52
2021/03/10 04:44:47;;;;;;;98.77;41.30;;;;;;;-5.41;64.47;100646.79;125086;1112;23030;-53
2021/03/10 04:47:17;;;;;;;100.77;42.37;;;;;;;-5.41;64.52;100643.27;124897;1112;22991;-52
2021/03/10 04:49:45;;;;;;;105.77;40.63;;;;;;;-5.43;64.66;100642.85;124985;1111;23033;-52
2021/03/10 04:52:16;;;;;;;103.90;42.65;;;;;;;-5.42;64.79;100639.77;124926;1110;23036;-52
2021/03/10 04:54:45;;;;;;;94.60;40.43;;;;;;;-5.40;64.73;100640.19;125074;1110;23021;-56
2021/03/10 04:57:14;;;;;;;106.43;42.47;;;;;;;-5.40;64.63;100651.06;124954;1111;27533;-54
2021/03/10 04:59:42;;;;;;;105.23;42.47;;;;;;;-5.38;64.70;100650.73;124963;1111;23232;-52
2021/03/10 05:02:12;;;;;;;104.80;44.17;;;;;;;-5.36;64.77;100645.70;124813;1110;23235;-52
2021/03/10 05:04:41;;;;;;;115.83;46.20;;;;;;;-5.39;64.91;100649.94;125047;1111;23025;-52
2021/03/10 05:07:10;;;;;;;117.50;47.70;;;;;;;-5.39;64.74;100649.94;124849;1111;23053;-52
2021/03/10 05:09:39;;;;;;;130.03;48.63;;;;;;;-5.39;64.94;100649.14;124997;1111;23047;-52
2021/03/10 05:12:10;;;;;;;116.43;49.77;;;;;;;-5.39;65.05;100649.94;125019;1111;23029;-55
2021/03/10 05:14:39;;;;;;;116.33;51.63;;;;;;;-5.41;64.93;100654.16;125026;1111;23068;-54
2021/03/10 05:17:08;;;;;;;126.87;53.50;;;;;;;-5.45;64.97;100645.94;124751;1109;23042;-56
2021/03/10 05:19:37;;;;;;;114.47;49.37;;;;;;;-5.45;64.75;100651.38;124861;1111;23083;-56
2021/03/10 05:22:06;;;;;;;113.85;48.80;;;;;;;-5.44;64.88;100646.73;124722;1110;23006;-53
2021/03/10 05:24:35;;;;;;;124.60;51.83;;;;;;;-5.43;65.20;100651.02;124830;1111;25928;-54
2021/03/10 05:27:05;;;;;;;115.80;50.87;;;;;;;-5.42;64.97;100656.09;124752;1111;24679;-53
2021/03/10 05:29:36;;;;;;;104.38;41.20;;;;;;;-5.43;64.81;100649.09;124789;1111;23086;-53
2021/03/10 05:32:06;;;;;;;115.30;51.55;;;;;;;-5.42;64.80;100658.04;124981;1112;23025;-54
2021/03/10 05:34:36;;;;;;;122.90;54.80;;;;;;;-5.42;64.83;100653.36;124883;1112;26119;-56
2021/03/10 05:37:05;;;;;;;;;;;;;;;-5.43;64.97;100653.73;124862;1112;27745;-57
2021/03/10 05:39:34;;;;;;;135.83;55.30;;;;;;;-5.46;65.26;100654.47;124831;1111;21539;-55
2021/03/10 05:42:05;;;;;;;126.43;52.13;;;;;;;-5.47;65.15;100652.88;124855;1111;23000;-54
2021/03/10 05:44:34;;;;;;;127.17;54.77;;;;;;;-5.46;65.25;100659.91;124931;1112;23028;-59
2021/03/10 05:47:03;;;;;;;128.53;53.20;;;;;;;-5.45;65.50;100664.19;124920;1112;23036;-52
2021/03/10 05:49:32;;;;;;;129.53;54.53;;;;;;;-5.45;65.31;100669.63;125030;1112;26065;-53
2021/03/10 05:52:04;;;;;;;130.43;56.37;;;;;;;-5.47;65.16;100663.77;124895;1111;23114;-52
2021/03/10 05:54:35;;;;;;;124.65;54.10;;;;;;;-5.47;65.14;100664.56;124895;1112;23166;-55
2021/03/10 05:57:07;;;;;;;121.20;53.37;;;;;;;-5.46;65.30;100670.80;124924;1110;23215;-52
2021/03/10 05:59:36;;;;;;;125.33;50.03;;;;;;;-5.44;65.29;100671.98;124931;1112;23036;-55
2021/03/10 06:02:06;;;;;;;127.17;52.80;;;;;;;-5.44;65.53;100669.27;125000;1111;26129;-52
2021/03/10 06:04:42;;;;;;;120.60;51.30;;;;;;;-5.43;66.00;100670.06;124982;1110;25946;-53
2021/03/10 06:07:23;;;;;;;124.90;52.17;;;;;;;-5.43;65.67;100676.30;125156;1112;26457;-52
2021/03/10 06:09:59;;;;;;;120.97;48.68;;;;;;;-5.43;66.19;100678.22;125025;1112;23246;-56
2021/03/10 06:12:44;;;;;;;118.50;52.43;;;;;;;-5.42;66.38;100683.29;124957;1111;23009;-53
2021/03/10 06:15:15;;;;;;;130.87;54.73;;;;;;;-5.42;67.26;100679.80;125140;1111;23079;-56
2021/03/10 06:17:46;;;;;;;133.43;58.47;;;;;;;-5.42;67.03;100686.02;125215;1111;26453;-53
2021/03/10 06:20:27;;;;;;;157.97;68.40;;;;;;;-5.43;67.57;100691.83;125075;1110;24205;-53
2021/03/10 06:22:56;;;;;;;148.53;73.50;;;;;;;-5.44;67.67;100699.19;125094;1111;23476;-53
2021/03/10 06:25:34;;;;;;;174.80;89.95;;;;;;;-5.43;67.94;100702.70;124991;1111;25995;-53
2021/03/10 06:28:05;;;;;;;151.60;78.93;;;;;;;-5.41;68.30;100697.69;125135;1111;23157;-52
2021/03/10 06:30:40;;;;;;;124.43;62.00;;;;;;;-5.39;68.70;100700.84;125075;1110;23303;-52
2021/03/10 06:33:20;;;;;;;135.00;61.57;;;;;;;-5.37;68.52;100704.77;125080;1110;23076;-52
2021/03/10 06:35:50;;;;;;;103.03;46.63;;;;;;;-5.33;68.58;100699.39;124871;1112;27689;-52
2021/03/10 06:38:20;;;;;;;152.35;66.67;;;;;;;-5.29;68.58;100708.41;125001;1112;24038;-52
2021/03/10 06:40:56;;;;;;;147.13;63.60;;;;;;;-5.24;69.19;100713.56;124967;1110;23006;-53
2021/03/10 06:43:36;;;;;;;141.90;62.87;;;;;;;-5.19;69.20;100710.52;124953;1112;24680;-53
2021/03/10 06:46:15;;;;;;;149.67;62.43;;;;;;;-5.14;69.06;100712.96;124899;1111;23076;-53
2021/03/10 06:48:55;;;;;;;155.70;69.05;;;;;;;-5.09;69.38;100718.12;124913;1112;23005;-54
2021/03/10 06:51:24;;;;;;;160.10;67.25;;;;;;;-5.02;69.24;100720.95;124942;1111;23077;-52
2021/03/10 06:53:54;;;;;;;160.47;68.83;;;;;;;-4.96;69.48;100725.73;127068;1112;29120;-56
2021/03/10 06:56:25;;;;;;;157.03;72.53;;;;;;;-4.88;69.89;100726.62;124318;1111;23090;-55
2021/03/10 06:59:03;;;;;;;177.27;74.63;;;;;;;-4.80;69.80;100724.83;124222;1111;23803;-54
2021/03/10 07:01:40;;;;;;;165.17;69.33;;;;;;;-4.71;69.94;100731.59;128225;1111;22910;-54
2021/03/10 07:04:11;;;;;;;172.00;75.93;;;;;;;-4.63;69.91;100725.10;127694;1110;23695;-57
2021/03/10 07:06:41;;;;;;;180.53;73.90;;;;;;;-4.53;70.15;100735.37;128199;1111;22871;-57
2021/03/10 07:09:13;;;;;;;162.00;72.40;;;;;;;-4.44;70.08;100727.74;128207;1111;22942;-55
2021/03/10 07:11:43;;;;;;;169.60;72.20;;;;;;;-4.33;70.03;100728.70;128222;1111;22863;-55
2021/03/10 07:14:13;;;;;;;164.67;72.45;;;;;;;-4.25;70.28;100730.38;128156;1111;22847;-57
2021/03/10 07:16:42;;;;;;;177.57;74.12;;;;;;;-4.14;70.40;100736.74;128216;1111;22827;-54
2021/03/10 07:19:11;;;;;;;171.50;75.03;;;;;;;-4.02;70.73;100732.23;128196;1111;23673;-58
2021/03/10 07:21:46;;;;;;;168.83;75.53;;;;;;;-3.93;70.88;100738.21;128189;1111;23426;-59
2021/03/10 07:24:20;;;;;;;169.77;75.80;;;;;;;-3.82;70.42;100742.64;124326;1110;27519;-57
2021/03/10 07:26:51;;;;;;;171.03;78.83;;;;;;;-3.73;70.72;100736.91;128176;1111;22823;-58
2021/03/10 07:29:21;;;;;;;182.13;80.80;;;;;;;-3.65;70.66;100736.62;128220;1111;23499;-55
2021/03/10 07:32:00;;;;;;;179.50;79.20;;;;;;;-3.55;70.64;100737.90;128182;1111;22929;-55
2021/03/10 07:34:30;;;;;;;168.30;71.87;;;;;;;-3.43;71.05;100745.84;128157;1111;22936;-57
2021/03/10 07:36:59;;;;;;;175.78;75.00;;;;;;;-3.34;70.78;100740.88;128218;1111;22864;-56
2021/03/10 07:39:30;;;;;;;165.63;71.90;;;;;;;-3.23;70.38;100744.52;128247;1111;22850;-58
2021/03/10 07:42:09;;;;;;;170.83;75.67;;;;;;;-3.15;70.68;100743.43;128207;1111;22838;-57
2021/03/10 07:44:38;;;;;;;171.27;74.87;;;;;;;-3.04;70.29;100746.27;128164;1110;23010;-56
2021/03/10 07:47:11;;;;;;;167.60;72.73;;;;;;;-2.94;70.89;100751.84;128186;1111;22860;-55
2021/03/10 07:49:41;;;;;;;163.33;76.43;;;;;;;-2.82;71.13;100754.30;128194;1110;22827;-56
2021/03/10 07:52:12;;;;;;;165.53;72.23;;;;;;;-2.72;70.68;100752.81;128188;1111;22977;-57
2021/03/10 07:54:41;;;;;;;;;;;;;;;-2.62;69.63;100754.84;126176;1111;23078;-54
2021/03/10 07:57:12;;;;;;;151.93;69.30;;;;;;;-2.55;70.51;100747.52;124770;1112;24193;-52
2021/03/10 07:59:54;;;;;;;165.87;74.00;;;;;;;-2.47;70.81;100749.13;124769;1112;24722;-55
2021/03/10 08:02:24;;;;;;;161.37;71.17;;;;;;;-2.37;70.71;100758.57;124922;1111;23077;-54
2021/03/10 08:04:58;;;;;;;;;;;;;;;-2.31;70.32;100754.31;124806;1111;27552;-53
2021/03/10 08:07:29;;;;;;;164.90;71.55;;;;;;;-2.25;70.43;100761.00;124948;1111;23012;-56
2021/03/10 08:09:59;;;;;;;159.90;73.07;;;;;;;-2.16;70.79;100766.14;124803;1112;23161;-54
2021/03/10 08:12:35;;;;;;;161.50;71.22;;;;;;;-2.06;71.09;100765.42;124566;1111;22970;-57
2021/03/10 08:15:06;;;;;;;157.77;70.67;;;;;;;-1.98;71.04;100756.09;128111;1111;22848;-55
2021/03/10 08:17:36;;;;;;;159.10;70.53;;;;;;;-1.89;70.20;100760.08;128137;1111;22835;-56
2021/03/10 08:20:07;;;;;;;137.95;62.67;;;;;;;-1.80;70.03;100757.00;128140;1111;22863;-56
2021/03/10 08:22:36;;;;;;;158.33;68.87;;;;;;;-1.74;69.92;100761.70;128159;1112;22904;-54
2021/03/10 08:25:12;;;;;;;145.00;66.33;;;;;;;-1.67;69.98;100763.69;128123;1111;22864;-56
2021/03/10 08:27:43;;;;;;;155.87;67.80;;;;;;;-1.59;70.00;100757.08;128191;1111;22918;-54
2021/03/10 08:30:28;;;;;;;150.33;64.87;;;;;;;-1.52;69.76;100764.54;126554;1111;23089;-58
2021/03/10 08:33:51;;;;;;;135.97;61.33;;;;;;;-1.45;69.81;100751.68;125783;1112;25584;-55
2021/03/10 08:36:50;;;;;;;142.23;62.30;;;;;;;-1.33;69.57;100756.80;125654;1112;23158;-55
2021/03/10 08:39:27;;;;;;;140.20;61.97;;;;;;;-1.20;69.33;100757.23;128180;1111;22938;-55
2021/03/10 08:41:58;;;;;;;138.85;61.45;;;;;;;-1.12;69.62;100762.33;128174;1111;22988;-55
2021/03/10 08:44:38;;;;;;;136.77;64.37;;;;;;;-1.02;69.65;100753.38;128199;1111;23422;-55
2021/03/10 08:47:12;;;;;;;142.18;62.38;;;;;;;-0.88;69.24;100753.39;127866;1111;41771;-57
2021/03/10 08:49:42;;;;;;;130.10;57.93;;;;;;;-0.77;69.81;100742.45;128180;1111;22862;-55
2021/03/10 08:52:14;;;;;;;120.90;58.55;;;;;;;-0.68;69.15;100744.80;128166;1111;22898;-54
2021/03/10 08:54:52;;;;;;;113.53;50.20;;;;;;;-0.60;68.34;100746.38;128159;1111;22869;-57
2021/03/10 08:57:24;;;;;;;123.03;53.53;;;;;;;-0.48;68.71;100746.77;128194;1112;24164;-56
2021/03/10 08:59:54;;;;;;;135.03;57.80;;;;;;;-0.37;68.17;100752.22;128200;1110;22845;-57
2021/03/10 09:02:31;;;;;;;122.37;56.37;;;;;;;-0.26;68.83;100759.29;128152;1112;23679;-56
2021/03/10 09:05:03;;;;;;;122.23;54.80;;;;;;;-0.17;68.44;100758.89;128170;1111;22833;-54
2021/03/10 09:07:32;;;;;;;127.23;56.63;;;;;;;-0.06;68.19;100749.45;125793;1110;23010;-56
2021/03/10 09:10:08;;;;;;;121.77;53.90;;;;;;;0.09;68.69;100743.92;128171;1111;22821;-56
2021/03/10 09:12:42;;;;;;;115.70;53.27;;;;;;;0.21;67.69;100751.77;128183;1111;25332;-54
2021/03/10 09:15:13;;;;;;;115.00;52.53;;;;;;;0.32;68.31;100752.50;128192;1110;22820;-55
2021/03/10 09:17:42;;;;;;;112.70;51.87;;;;;;;0.44;67.30;100754.80;128144;1112;22869;-56
2021/03/10 09:20:24;;;;;;;104.13;48.77;;;;;;;0.51;67.92;100752.83;128142;1111;22886;-56
2021/03/10 09:22:54;;;;;;;107.60;49.73;;;;;;;0.61;67.02;100754.75;128177;1112;23734;-57
2021/03/10 09:25:25;;;;;;;107.12;50.40;;;;;;;0.68;66.81;100743.71;128153;1111;22919;-56
2021/03/10 09:28:07;;;;;;;110.37;49.50;;;;;;;0.76;67.28;100742.52;128133;1111;22858;-56
2021/03/10 09:30:38;;;;;;;100.73;45.27;;;;;;;0.92;67.06;100743.98;128195;1112;22858;-55
2021/03/10 09:33:17;;;;;;;93.23;41.00;;;;;;;1.07;65.93;100745.47;128141;1111;22822;-54
2021/03/10 09:35:53;;;;;;;95.00;41.90;;;;;;;1.22;65.25;100753.21;128102;1111;24416;-56
2021/03/10 09:38:23;;;;;;;89.83;41.17;;;;;;;1.37;65.28;100754.69;128163;1111;23087;-56
2021/03/10 09:40:55;;;;;;;85.28;38.15;;;;;;;1.46;64.75;100755.02;128130;1111;22875;-56
2021/03/10 09:43:26;;;;;;;81.37;34.90;;;;;;;1.56;64.36;100747.86;128131;1111;22901;-55
2021/03/10 09:45:57;;;;;;;;;;;;;;;1.68;63.58;100738.34;128179;1112;22872;-56
2021/03/10 09:48:34;;;;;;;80.83;33.00;;;;;;;1.88;63.15;100740.11;128055;1111;29972;-55
2021/03/10 09:51:05;;;;;;;66.50;30.67;;;;;;;2.01;63.19;100740.36;128172;1111;22845;-57
2021/03/10 09:53:39;;;;;;;53.20;23.83;;;;;;;2.12;61.89;100747.33;128178;1112;22851;-55
2021/03/10 09:56:09;;;;;;;56.17;23.00;;;;;;;2.18;62.26;100758.68;128149;1111;22893;-55
2021/03/10 09:58:48;;;;;;;56.20;24.40;;;;;;;2.20;62.18;100759.84;128181;1112;22948;-56
2021/03/10 10:01:18;;;;;;;63.20;27.33;;;;;;;2.30;61.47;100756.19;128152;1111;23655;-56
2021/03/10 10:03:47;;;;;;;48.37;20.77;;;;;;;2.41;60.72;100756.06;128162;1111;24335;-55
2021/03/10 10:06:18;;;;;;;48.63;22.63;;;;;;;2.45;60.79;100756.80;128146;1110;22850;-55
2021/03/10 10:08:48;;;;;;;43.07;18.37;;;;;;;2.43;60.28;100761.95;128159;1111;22929;-56
2021/03/10 10:11:19;;;;;;;38.83;15.78;;;;;;;2.42;60.11;100752.89;128128;1112;22821;-56
2021/03/10 10:13:52;;;;;;;33.93;15.23;;;;;;;2.44;59.81;100758.02;128150;1112;22801;-56
2021/03/10 10:16:21;;;;;;;38.92;15.68;;;;;;;2.44;59.68;100758.77;128175;1111;23044;-56
2021/03/10 10:18:51;;;;;;;41.73;17.07;;;;;;;2.51;59.91;100762.63;128186;1111;22930;-57
2021/03/10 10:21:21;;;;;;;46.08;19.57;;;;;;;2.55;59.86;100758.65;128161;1111;22836;-56
2021/03/10 10:23:56;;;;;;;41.10;17.63;;;;;;;2.58;59.01;100765.32;128163;1112;24263;-55
2021/03/10 10:26:27;;;;;;;38.93;15.97;;;;;;;2.60;57.83;100754.66;128180;1111;22874;-57
2021/03/10 10:28:56;;;;;;;38.08;15.55;;;;;;;2.67;57.34;100746.31;128184;1111;22807;-58
2021/03/10 10:31:25;;;;;;;34.60;15.60;;;;;;;2.75;57.79;100743.03;128173;1111;22884;-57
2021/03/10 10:33:58;;;;;;;40.33;17.50;;;;;;;2.77;57.62;100748.16;128149;1111;23777;-56
2021/03/10 10:36:27;;;;;;;30.20;11.27;;;;;;;2.78;56.28;100742.22;128136;1111;22983;-58
2021/03/10 10:38:56;;;;;;;30.43;9.33;;;;;;;2.87;56.44;100747.23;128239;1111;23678;-58
2021/03/10 10:41:26;;;;;;;22.30;6.93;;;;;;;2.95;55.25;100748.69;128148;1112;23541;-58
2021/03/10 10:43:55;;;;;;;21.52;5.33;;;;;;;3.05;56.05;100756.03;128125;1111;23423;-57
2021/03/10 10:46:27;;;;;;;16.80;4.70;;;;;;;3.08;54.53;100760.73;128147;1111;22877;-58
2021/03/10 10:48:56;;;;;;;21.30;6.53;;;;;;;3.14;55.69;100762.61;128141;1111;26314;-57
2021/03/10 10:51:29;;;;;;;16.07;4.90;;;;;;;3.17;55.62;100756.24;128230;1111;23007;-57
2021/03/10 10:53:58;;;;;;;20.90;7.57;;;;;;;3.18;54.91;100757.82;128249;1111;22825;-59
2021/03/10 10:56:28;;;;;;;20.67;7.50;;;;;;;3.17;54.29;100759.00;128249;1111;22941;-56
2021/03/10 10:58:57;;;;;;;24.35;7.87;;;;;;;3.15;54.32;100763.37;128262;1111;23574;-57
2021/03/10 11:01:26;;;;;;;21.97;7.57;;;;;;;3.17;53.82;100774.77;128199;1111;22916;-58
2021/03/10 11:03:55;;;;;;;21.87;6.60;;;;;;;3.18;53.79;100773.58;128256;1111;22969;-56
2021/03/10 11:06:41;;;;;;;22.33;7.37;;;;;;;3.19;51.72;100766.86;128246;1111;24075;-55
2021/03/10 11:09:10;;;;;;;23.57;7.67;;;;;;;3.19;53.40;100764.88;128236;1111;22895;-56
2021/03/10 11:11:39;;;;;;;25.60;8.10;;;;;;;3.20;53.48;100757.40;128193;1112;22913;-55
2021/03/10 11:14:09;;;;;;;21.10;6.87;;;;;;;3.21;51.88;100754.21;128260;1111;23025;-57
2021/03/10 11:16:38;;;;;;;22.20;7.50;;;;;;;3.24;52.12;100752.60;128269;1111;23024;-58
2021/03/10 11:19:07;;;;;;;16.77;5.87;;;;;;;3.28;52.41;100748.60;128246;1112;23460;-59
2021/03/10 11:21:36;;;;;;;21.80;6.40;;;;;;;3.32;51.68;100754.05;128260;1111;23599;-57
2021/03/10 11:24:07;;;;;;;17.67;5.70;;;;;;;3.35;51.82;100750.47;128282;1110;23017;-58
2021/03/10 11:26:36;;;;;;;19.23;5.30;;;;;;;3.42;52.21;100753.11;128283;1111;23452;-58
2021/03/10 11:29:06;;;;;;;15.60;4.83;;;;;;;3.45;51.01;100749.52;128239;1111;23068;-58
2021/03/10 11:31:35;;;;;;;21.10;5.20;;;;;;;3.48;51.24;100750.64;128260;1111;23004;-58
2021/03/10 11:34:05;;;;;;;16.63;5.53;;;;;;;3.55;49.48;100754.09;128229;1112;23143;-57
2021/03/10 11:36:34;;;;;;;18.73;6.40;;;;;;;3.64;50.71;100753.56;126204;1111;23041;-56
2021/03/10 12:51:03;;;;;;;14.87;5.43;;;;;;;4.62;44.97;100667.97;128195;1110;22821;-60
2021/03/10 12:53:32;;;;;;;17.87;6.17;;;;;;;4.65;45.20;100664.36;128123;1111;29049;-56
2021/03/10 12:56:03;;;;;;;17.80;6.10;;;;;;;4.68;43.91;100661.52;128218;1111;23032;-59
2021/03/10 12:58:32;;;;;;;23.20;7.63;;;;;;;4.70;44.61;100664.63;128180;1112;22788;-56
2021/03/10 13:01:01;;;;;;;23.70;7.47;;;;;;;4.68;44.81;100666.26;128209;1111;22906;-58
2021/03/10 13:03:32;;;;;;;20.63;7.10;;;;;;;4.68;44.60;100672.58;128221;1111;22998;-56
2021/03/10 13:06:02;;;;;;;20.33;7.77;;;;;;;4.69;44.17;100667.83;128202;1111;23732;-56
2021/03/10 13:08:31;;;;;;;32.17;12.20;;;;;;;4.65;43.97;100667.13;128158;1112;23048;-57
2021/03/10 13:11:00;;;;;;;30.30;9.93;;;;;;;4.61;43.51;100660.91;128242;1112;22822;-58
2021/03/10 13:13:29;;;;;;;24.37;8.93;;;;;;;4.58;43.87;100659.77;128215;1112;22847;-55
2021/03/10 13:15:58;;;;;;;21.67;6.67;;;;;;;4.61;42.98;100658.14;128209;1111;22857;-58
2021/03/10 13:18:27;;;;;;;17.73;6.07;;;;;;;4.64;43.07;100660.81;128197;1111;23759;-54
2021/03/10 13:20:56;;;;;;;20.60;6.50;;;;;;;4.62;42.81;100671.52;128203;1111;22920;-58
2021/03/10 13:23:25;;;;;;;22.40;7.40;;;;;;;4.61;42.41;100656.16;128204;1111;24353;-55
2021/03/10 13:25:54;;;;;;;21.80;6.47;;;;;;;4.63;41.93;100656.51;128226;1111;24085;-56
2021/03/10 13:28:23;;;;;;;18.13;6.43;;;;;;;4.69;41.57;100659.53;128234;1111;23465;-56
2021/03/10 13:30:53;;;;;;;18.83;6.77;;;;;;;4.70;42.05;100647.25;128232;1112;23648;-56
2021/03/10 13:33:23;;;;;;;25.07;9.13;;;;;;;4.70;42.23;100639.73;128174;1111;23622;-57
2021/03/10 13:35:52;;;;;;;28.83;8.93;;;;;;;4.69;42.07;100648.47;128210;1111;23449;-56
2021/03/10 13:38:22;;;;;;;18.67;5.83;;;;;;;4.67;39.95;100648.13;128193;1110;22924;-56
2021/03/10 13:40:51;;;;;;;20.53;6.93;;;;;;;4.67;41.30;100648.13;128192;1110;22834;-56
2021/03/10 13:43:22;;;;;;;30.97;13.90;;;;;;;4.65;41.44;100654.09;128199;1110;22858;-56
2021/03/10 13:45:52;;;;;;;25.47;9.27;;;;;;;4.65;41.01;100654.09;128190;1111;23851;-57
2021/03/10 13:48:21;;;;;;;22.50;7.37;;;;;;;4.74;40.50;100650.71;128227;1110;23004;-56
2021/03/10 13:50:51;;;;;;;21.47;7.13;;;;;;;4.75;40.69;100650.30;128226;1111;22843;-57
2021/03/10 13:53:21;;;;;;;21.35;8.20;;;;;;;4.71;39.69;100644.08;128195;1112;23864;-56
2021/03/10 13:55:50;;;;;;;23.47;7.20;;;;;;;4.71;39.87;100638.55;128253;1111;22877;-57
2021/03/10 13:58:20;;;;;;;23.93;8.03;;;;;;;4.74;40.39;100647.95;128222;1111;22902;-59
2021/03/10 14:00:50;;;;;;;19.48;6.92;;;;;;;4.73;40.74;100646.41;128222;1111;23406;-55
2021/03/10 14:03:20;;;;;;;23.05;8.23;;;;;;;4.72;41.26;100648.38;128234;1111;23596;-57
2021/03/10 14:05:51;;;;;;;20.30;7.53;;;;;;;4.71;40.96;100646.84;128190;1111;22848;-57
2021/03/10 14:08:21;;;;;;;21.80;7.87;;;;;;;4.70;39.92;100639.73;128162;1112;22862;-57
2021/03/10 14:10:50;;;;;;;26.35;9.00;;;;;;;4.69;39.96;100649.26;128222;1111;23529;-56
2021/03/10 14:13:20;;;;;;;22.50;7.80;;;;;;;4.67;40.69;100643.38;128206;1111;22800;-56
2021/03/10 14:15:49;;;;;;;19.07;6.63;;;;;;;4.63;39.99;100658.48;128195;1111;22818;-56
2021/03/10 14:18:18;;;;;;;20.07;6.67;;;;;;;4.61;40.36;100647.08;128151;1111;23026;-56
2021/03/10 14:20:48;;;;;;;22.30;8.17;;;;;;;4.62;39.95;100645.85;128190;1111;23847;-56
2021/03/10 14:23:18;;;;;;;17.98;6.45;;;;;;;4.67;39.66;100648.13;128098;1110;23994;-57
2021/03/10 14:25:47;;;;;;;20.70;7.80;;;;;;;4.75;40.43;100646.75;128139;1110;22998;-56
2021/03/10 14:28:16;;;;;;;21.27;7.73;;;;;;;4.76;39.73;100651.84;128160;1111;22865;-55
2021/03/10 14:30:45;;;;;;;24.10;9.27;;;;;;;4.76;39.80;100653.83;128168;1110;23015;-56
2021/03/10 14:33:15;;;;;;;22.57;9.43;;;;;;;4.76;39.90;100657.37;128104;1110;23951;-55
2021/03/10 14:35:44;;;;;;;;;;;;;;;4.75;39.96;100650.30;128165;1111;23549;-56
2021/03/10 14:38:13;;;;;;;25.20;9.57;;;;;;;4.78;39.97;100651.41;128147;1111;21496;-57
2021/03/10 14:40:42;;;;;;;26.47;10.50;;;;;;;4.80;40.10;100665.62;128152;1111;23708;-57
2021/03/10 14:43:12;;;;;;;23.97;9.23;;;;;;;4.83;39.34;100665.53;128099;1111;23607;-56
2021/03/10 14:45:45;;;;;;;30.10;10.65;;;;;;;4.84;39.74;100658.02;128138;1111;22849;-56
2021/03/10 14:48:14;;;;;;;30.40;10.83;;;;;;;4.82;39.77;100658.42;128091;1110;34710;-55
2021/03/10 14:50:43;;;;;;;32.37;11.43;;;;;;;4.80;40.01;100649.78;128197;1111;23631;-58
2021/03/10 14:53:12;;;;;;;29.30;11.30;;;;;;;4.78;39.91;100656.94;128111;1111;22879;-58
2021/03/10 14:55:41;;;;;;;26.40;11.13;;;;;;;4.78;39.88;100657.73;128174;1112;22904;-57
2021/03/10 14:58:10;;;;;;;28.23;11.73;;;;;;;4.79;40.08;100661.28;128105;1111;24350;-57
2021/03/10 15:00:39;;;;;;;29.40;12.30;;;;;;;4.79;40.39;100656.53;128144;1111;23051;-57
2021/03/10 15:03:10;;;;;;;28.10;11.90;;;;;;;4.81;40.44;100658.86;128133;1110;24062;-57
2021/03/10 15:05:39;;;;;;;27.90;10.90;;;;;;;4.81;40.46;100659.65;128139;1111;22860;-57
2021/03/10 15:08:09;;;;;;;29.53;12.70;;;;;;;4.82;40.65;100657.67;128117;1111;22914;-58
2021/03/10 15:10:38;;;;;;;26.90;11.57;;;;;;;4.81;40.25;100670.71;128135;1111;22779;-56
2021/03/10 15:13:07;;;;;;;31.10;12.80;;;;;;;4.81;40.58;100672.69;128145;1111;22988;-57
2021/03/10 15:15:36;;;;;;;28.97;13.13;;;;;;;4.78;40.68;100660.49;128117;1112;22934;-55
2021/03/10 15:18:06;;;;;;;26.30;12.00;;;;;;;4.77;40.44;100666.46;128081;1111;22873;-57
2021/03/10 15:20:35;;;;;;;28.30;12.35;;;;;;;4.75;40.65;100672.44;128155;1111;22961;-57
2021/03/10 15:23:05;;;;;;;30.80;13.57;;;;;;;4.73;40.58;100666.55;128130;1111;22877;-59
2021/03/10 15:25:33;;;;;;;30.60;13.53;;;;;;;4.71;40.64;100659.88;128156;1111;22900;-59
2021/03/10 15:28:03;;;;;;;32.63;14.13;;;;;;;4.70;40.92;100656.33;128080;1111;22879;-60
2021/03/10 15:30:32;;;;;;;31.93;12.93;;;;;;;4.69;40.14;100659.53;128127;1110;22816;-59
2021/03/10 15:33:01;;;;;;;27.30;12.20;;;;;;;4.68;40.29;100666.26;128098;1111;22835;-59
2021/03/10 15:35:31;;;;;;;26.27;12.17;;;;;;;4.65;40.56;100667.13;128139;1111;22824;-59
2021/03/10 15:38:00;;;;;;;28.33;13.10;;;;;;;4.64;40.88;100657.27;128115;1111;22885;-58
2021/03/10 15:40:29;;;;;;;30.60;12.77;;;;;;;4.62;40.63;100654.15;128145;1111;22850;-59
2021/03/10 15:42:58;;;;;;;31.70;12.77;;;;;;;4.58;40.67;100657.00;128077;1112;23849;-59
2021/03/10 15:45:28;;;;;;;31.90;13.57;;;;;;;4.57;40.78;100657.44;128101;1110;22904;-59
2021/03/10 15:47:58;;;;;;;32.23;13.60;;;;;;;4.54;40.93;100647.22;128031;1111;54058;-58
2021/03/10 15:50:27;;;;;;;32.48;14.05;;;;;;;4.50;40.49;100655.59;128087;1111;23492;-58
2021/03/10 15:52:57;;;;;;;31.17;12.97;;;;;;;4.48;41.62;100651.70;128056;1112;22860;-56
2021/03/10 15:55:26;;;;;;;35.73;15.67;;;;;;;4.44;41.68;100654.55;128141;1111;22845;-55
2021/03/10 15:57:55;;;;;;;37.23;16.13;;;;;;;4.41;41.29;100649.07;128041;1111;22859;-56
2021/03/10 16:00:26;;;;;;;39.07;15.77;;;;;;;4.37;41.31;100654.69;128136;1111;22988;-56
2021/03/10 16:02:55;;;;;;;33.85;13.75;;;;;;;4.34;41.19;100647.27;128107;1112;22874;-56
2021/03/10 16:05:24;;;;;;;38.80;15.33;;;;;;;4.29;41.80;100639.45;128085;1112;22994;-56
2021/03/10 16:07:53;;;;;;;35.83;14.97;;;;;;;4.27;41.32;100652.14;128147;1111;22801;-56
2021/03/10 16:10:22;;;;;;;34.90;14.70;;;;;;;4.22;41.62;100642.36;128120;1111;22852;-56
2021/03/10 16:12:51;;;;;;;36.40;15.43;;;;;;;4.19;42.17;100645.98;128111;1110;22859;-57
2021/03/10 16:15:20;;;;;;;40.07;17.60;;;;;;;4.16;42.90;100648.83;128075;1111;22858;-57
2021/03/10 16:17:50;;;;;;;48.23;19.37;;;;;;;4.09;42.86;100642.25;128109;1111;22905;-56
2021/03/10 16:20:19;;;;;;;45.50;18.90;;;;;;;4.07;43.18;100643.87;128136;1111;22844;-58
2021/03/10 16:22:48;;;;;;;44.47;19.43;;;;;;;4.03;42.47;100646.69;128125;1111;22867;-56
2021/03/10 16:25:17;;;;;;;42.83;18.63;;;;;;;3.98;42.47;100641.67;128148;1111;22867;-59
2021/03/10 16:27:46;;;;;;;39.00;17.67;;;;;;;3.94;43.03;100638.20;128147;1112;22780;-58
2021/03/10 16:30:17;;;;;;;39.10;16.80;;;;;;;3.91;42.80;100641.80;128139;1111;22877;-56
2021/03/10 16:32:46;;;;;;;39.10;18.77;;;;;;;3.87;43.32;100654.89;128118;1111;22856;-59